Terminal Aerodrome Forecast
Issued by NWS

Current Version | Previous Version | Text Only | Print | Product List | Glossary On
Versions: 1 2 3 4 5 6 7 8 9 10 11 12 13 14 15
000
FTUS42 TJSJ 010500
TAFJPS
TAF
TJPS 010530Z 0106/0206 VRB03KT P6SM FEW025
     FM011430 16010KT P6SM FEW030
     FM012100 05005KT P6SM FEW030
      AMD NOT SKED 0112/0203=

USA.gov is the U.S. government's official web portal to all federal, state and local government web resources and services.